sensor_id;sensor_type;location;lat;lon;timestamp;pressure;altitude;pressure_sealevel;temperature;humidity
56456;BME280;42354;53.218;6.564;2023-08-17T00:02:11;46977.03;;;-142.92;100.00
56456;BME280;42354;53.218;6.564;2023-08-17T00:04:36;46987.28;;;-142.92;100.00
56456;BME280;42354;53.218;6.564;2023-08-17T00:07:02;46979.06;;;-142.92;100.00
56456;BME280;42354;53.218;6.564;2023-08-17T00:09:27;46964.72;;;-142.92;100.00
56456;BME280;42354;53.218;6.564;2023-08-17T00:11:52;46979.06;;;-142.92;100.00
56456;BME280;42354;53.218;6.564;2023-08-17T00:14:18;46979.06;;;-142.92;100.00
56456;BME280;42354;53.218;6.564;2023-08-17T00:16:43;46979.06;;;-142.92;100.00
56456;BME280;42354;53.218;6.564;2023-08-17T00:19:08;46972.91;;;-142.92;100.00
56456;BME280;42354;53.218;6.564;2023-08-17T00:21:34;46987.28;;;-142.92;100.00
56456;BME280;42354;53.218;6.564;2023-08-17T00:23:59;46985.22;;;-142.92;100.00
56456;BME280;42354;53.218;6.564;2023-08-17T00:26:24;46972.91;;;-142.92;100.00
56456;BME280;42354;53.218;6.564;2023-08-17T00:28:50;46964.72;;;-142.92;100.00
56456;BME280;42354;53.218;6.564;2023-08-17T00:31:15;46987.28;;;-142.92;100.00
56456;BME280;42354;53.218;6.564;2023-08-17T00:33:44;46974.97;;;-142.92;100.00
56456;BME280;42354;53.218;6.564;2023-08-17T00:36:09;46979.06;;;-142.92;100.00
56456;BME280;42354;53.218;6.564;2023-08-17T00:38:35;46993.44;;;-142.92;100.00
56456;BME280;42354;53.218;6.564;2023-08-17T00:41:00;46991.38;;;-142.92;100.00
56456;BME280;42354;53.218;6.564;2023-08-17T00:43:28;46983.19;;;-142.92;100.00
56456;BME280;42354;53.218;6.564;2023-08-17T00:45:54;46974.97;;;-142.92;100.00
56456;BME280;42354;53.218;6.564;2023-08-17T00:48:19;46989.34;;;-142.92;100.00
56456;BME280;42354;53.218;6.564;2023-08-17T00:50:47;46983.19;;;-142.92;100.00
56456;BME280;42354;53.218;6.564;2023-08-17T00:53:14;46977.03;;;-142.92;100.00
56456;BME280;42354;53.218;6.564;2023-08-17T00:55:43;46979.06;;;-142.92;100.00
56456;BME280;42354;53.218;6.564;2023-08-17T00:58:08;46983.19;;;-142.92;100.00
56456;BME280;42354;53.218;6.564;2023-08-17T01:00:34;46970.88;;;-142.92;100.00
56456;BME280;42354;53.218;6.564;2023-08-17T01:02:59;46972.91;;;-142.92;100.00
56456;BME280;42354;53.218;6.564;2023-08-17T01:05:25;46985.22;;;-142.92;100.00
56456;BME280;42354;53.218;6.564;2023-08-17T01:07:50;46987.28;;;-142.92;100.00
56456;BME280;42354;53.218;6.564;2023-08-17T01:10:16;46987.28;;;-142.92;100.00
56456;BME280;42354;53.218;6.564;2023-08-17T01:15:14;46989.34;;;-142.92;100.00
56456;BME280;42354;53.218;6.564;2023-08-17T01:20:23;46977.03;;;-142.92;100.00
56456;BME280;42354;53.218;6.564;2023-08-17T01:22:50;46983.19;;;-142.92;100.00
56456;BME280;42354;53.218;6.564;2023-08-17T01:25:17;46981.13;;;-142.92;100.00
56456;BME280;42354;53.218;6.564;2023-08-17T01:27:45;46964.72;;;-142.92;100.00
56456;BME280;42354;53.218;6.564;2023-08-17T01:30:12;46970.88;;;-142.92;100.00
56456;BME280;42354;53.218;6.564;2023-08-17T01:32:59;46983.19;;;-142.92;100.00
56456;BME280;42354;53.218;6.564;2023-08-17T01:35:56;46993.44;;;-142.92;100.00
56456;BME280;42354;53.218;6.564;2023-08-17T01:38:26;46991.38;;;-142.92;100.00
56456;BME280;42354;53.218;6.564;2023-08-17T01:40:53;46974.97;;;-142.92;100.00
56456;BME280;42354;53.218;6.564;2023-08-17T01:43:19;46991.38;;;-142.92;100.00
56456;BME280;42354;53.218;6.564;2023-08-17T01:45:46;46974.97;;;-142.92;100.00
56456;BME280;42354;53.218;6.564;2023-08-17T01:48:12;46977.03;;;-142.92;100.00
56456;BME280;42354;53.218;6.564;2023-08-17T01:50:38;46979.06;;;-142.92;100.00
56456;BME280;42354;53.218;6.564;2023-08-17T01:53:03;46960.59;;;-142.92;100.00
56456;BME280;42354;53.218;6.564;2023-08-17T01:55:29;46970.88;;;-142.92;100.00
56456;BME280;42354;53.218;6.564;2023-08-17T01:57:54;46991.38;;;-142.92;100.00
56456;BME280;42354;53.218;6.564;2023-08-17T02:00:20;46972.91;;;-142.92;100.00
56456;BME280;42354;53.218;6.564;2023-08-17T02:02:45;46993.44;;;-142.92;100.00
56456;BME280;42354;53.218;6.564;2023-08-17T02:05:10;46989.34;;;-142.92;100.00
56456;BME280;42354;53.218;6.564;2023-08-17T02:07:36;46979.06;;;-142.92;100.00
56456;BME280;42354;53.218;6.564;2023-08-17T02:10:01;46974.97;;;-142.92;100.00
56456;BME280;42354;53.218;6.564;2023-08-17T02:12:27;46985.22;;;-142.92;100.00
56456;BME280;42354;53.218;6.564;2023-08-17T02:14:52;46993.44;;;-142.92;100.00
56456;BME280;42354;53.218;6.564;2023-08-17T02:17:18;47003.69;;;-142.92;100.00
56456;BME280;42354;53.218;6.564;2023-08-17T02:19:44;46981.13;;;-142.92;100.00
56456;BME280;42354;53.218;6.564;2023-08-17T02:22:10;46987.28;;;-142.92;100.00
56456;BME280;42354;53.218;6.564;2023-08-17T02:24:36;46991.38;;;-142.92;100.00
56456;BME280;42354;53.218;6.564;2023-08-17T02:27:01;46987.28;;;-142.92;100.00
56456;BME280;42354;53.218;6.564;2023-08-17T02:29:26;46983.19;;;-142.92;100.00
56456;BME280;42354;53.218;6.564;2023-08-17T02:31:52;46989.34;;;-142.92;100.00
56456;BME280;42354;53.218;6.564;2023-08-17T02:34:17;46983.19;;;-142.92;100.00
56456;BME280;42354;53.218;6.564;2023-08-17T02:36:42;46979.06;;;-142.92;100.00
56456;BME280;42354;53.218;6.564;2023-08-17T02:39:08;46995.50;;;-142.92;100.00
56456;BME280;42354;53.218;6.564;2023-08-17T02:41:33;46974.97;;;-142.92;100.00
56456;BME280;42354;53.218;6.564;2023-08-17T02:43:59;46991.38;;;-142.92;100.00
56456;BME280;42354;53.218;6.564;2023-08-17T02:46:28;46989.34;;;-142.92;100.00
56456;BME280;42354;53.218;6.564;2023-08-17T02:48:53;46999.59;;;-142.92;100.00
56456;BME280;42354;53.218;6.564;2023-08-17T02:51:19;46985.22;;;-142.92;100.00
56456;BME280;42354;53.218;6.564;2023-08-17T02:53:44;46977.03;;;-142.92;100.00
56456;BME280;42354;53.218;6.564;2023-08-17T02:56:10;46979.06;;;-142.92;100.00
56456;BME280;42354;53.218;6.564;2023-08-17T02:58:38;46983.19;;;-142.92;100.00
56456;BME280;42354;53.218;6.564;2023-08-17T03:01:06;47001.66;;;-142.92;100.00
56456;BME280;42354;53.218;6.564;2023-08-17T03:03:31;46977.03;;;-142.92;100.00
56456;BME280;42354;53.218;6.564;2023-08-17T03:05:57;46987.28;;;-142.92;100.00
56456;BME280;42354;53.218;6.564;2023-08-17T03:08:22;46979.06;;;-142.92;100.00
56456;BME280;42354;53.218;6.564;2023-08-17T03:10:48;46987.28;;;-142.92;100.00
56456;BME280;42354;53.218;6.564;2023-08-17T03:13:13;46979.06;;;-142.92;100.00
56456;BME280;42354;53.218;6.564;2023-08-17T03:15:39;46993.44;;;-142.92;100.00
56456;BME280;42354;53.218;6.564;2023-08-17T03:18:05;46987.28;;;-142.92;100.00
56456;BME280;42354;53.218;6.564;2023-08-17T03:20:31;46987.28;;;-142.92;100.00
56456;BME280;42354;53.218;6.564;2023-08-17T03:22:56;46979.06;;;-142.92;100.00
56456;BME280;42354;53.218;6.564;2023-08-17T03:25:22;46983.19;;;-142.92;100.00
56456;BME280;42354;53.218;6.564;2023-08-17T03:27:47;46993.44;;;-142.92;100.00
56456;BME280;42354;53.218;6.564;2023-08-17T03:30:12;46991.38;;;-142.92;100.00
56456;BME280;42354;53.218;6.564;2023-08-17T03:32:38;46985.22;;;-142.92;100.00
56456;BME280;42354;53.218;6.564;2023-08-17T03:35:03;46974.97;;;-142.92;100.00
56456;BME280;42354;53.218;6.564;2023-08-17T03:37:29;46985.22;;;-142.92;100.00
56456;BME280;42354;53.218;6.564;2023-08-17T03:39:54;46977.03;;;-142.92;100.00
56456;BME280;42354;53.218;6.564;2023-08-17T03:42:20;46991.38;;;-142.92;100.00
56456;BME280;42354;53.218;6.564;2023-08-17T03:44:45;46972.91;;;-142.92;100.00
56456;BME280;42354;53.218;6.564;2023-08-17T03:47:10;46979.06;;;-142.92;100.00
56456;BME280;42354;53.218;6.564;2023-08-17T03:49:39;46977.03;;;-142.92;100.00
56456;BME280;42354;53.218;6.564;2023-08-17T03:52:05;46987.28;;;-142.92;100.00
56456;BME280;42354;53.218;6.564;2023-08-17T03:54:30;46987.28;;;-142.92;100.00
56456;BME280;42354;53.218;6.564;2023-08-17T03:56:59;46987.28;;;-142.92;100.00
56456;BME280;42354;53.218;6.564;2023-08-17T03:59:24;46974.97;;;-142.92;100.00
56456;BME280;42354;53.218;6.564;2023-08-17T04:01:50;46979.06;;;-142.92;100.00
56456;BME280;42354;53.218;6.564;2023-08-17T04:04:16;46991.38;;;-142.92;100.00
56456;BME280;42354;53.218;6.564;2023-08-17T04:06:41;46983.19;;;-142.92;100.00
56456;BME280;42354;53.218;6.564;2023-08-17T04:09:07;46999.59;;;-142.92;100.00
56456;BME280;42354;53.218;6.564;2023-08-17T04:11:34;46995.50;;;-142.92;100.00
56456;BME280;42354;53.218;6.564;2023-08-17T04:14:00;46970.88;;;-142.92;100.00
56456;BME280;42354;53.218;6.564;2023-08-17T04:16:25;46987.28;;;-142.92;100.00
56456;BME280;42354;53.218;6.564;2023-08-17T04:18:51;46987.28;;;-142.92;100.00
56456;BME280;42354;53.218;6.564;2023-08-17T04:21:16;46983.19;;;-142.92;100.00
56456;BME280;42354;53.218;6.564;2023-08-17T04:23:43;46999.59;;;-142.92;100.00
56456;BME280;42354;53.218;6.564;2023-08-17T04:26:08;46968.81;;;-142.92;100.00
56456;BME280;42354;53.218;6.564;2023-08-17T04:28:34;46991.38;;;-142.92;100.00
56456;BME280;42354;53.218;6.564;2023-08-17T04:30:59;46987.28;;;-142.92;100.00
56456;BME280;42354;53.218;6.564;2023-08-17T04:33:24;46987.28;;;-142.92;100.00
56456;BME280;42354;53.218;6.564;2023-08-17T04:35:50;46983.19;;;-142.92;100.00
56456;BME280;42354;53.218;6.564;2023-08-17T04:38:15;46995.50;;;-142.92;100.00
56456;BME280;42354;53.218;6.564;2023-08-17T04:40:41;46983.19;;;-142.92;100.00
56456;BME280;42354;53.218;6.564;2023-08-17T04:43:06;46983.19;;;-142.92;100.00
56456;BME280;42354;53.218;6.564;2023-08-17T04:45:32;46972.91;;;-142.92;100.00
56456;BME280;42354;53.218;6.564;2023-08-17T04:47:57;46987.28;;;-142.92;100.00
56456;BME280;42354;53.218;6.564;2023-08-17T04:50:22;47003.69;;;-142.92;100.00
56456;BME280;42354;53.218;6.564;2023-08-17T04:52:48;46993.44;;;-142.92;100.00
56456;BME280;42354;53.218;6.564;2023-08-17T04:55:14;46991.38;;;-142.92;100.00
56456;BME280;42354;53.218;6.564;2023-08-17T04:57:39;46983.19;;;-142.92;100.00
56456;BME280;42354;53.218;6.564;2023-08-17T05:00:05;46987.28;;;-142.92;100.00
56456;BME280;42354;53.218;6.564;2023-08-17T05:02:34;46987.28;;;-142.92;100.00
56456;BME280;42354;53.218;6.564;2023-08-17T05:05:06;46995.50;;;-142.92;100.00
56456;BME280;42354;53.218;6.564;2023-08-17T05:07:33;46979.06;;;-142.92;100.00
56456;BME280;42354;53.218;6.564;2023-08-17T05:09:58;46999.59;;;-142.92;100.00
56456;BME280;42354;53.218;6.564;2023-08-17T05:12:23;46995.50;;;-142.92;100.00
56456;BME280;42354;53.218;6.564;2023-08-17T05:14:49;46995.50;;;-142.92;100.00
56456;BME280;42354;53.218;6.564;2023-08-17T05:17:14;46991.38;;;-142.92;100.00
56456;BME280;42354;53.218;6.564;2023-08-17T05:19:39;46995.50;;;-142.92;100.00
56456;BME280;42354;53.218;6.564;2023-08-17T05:22:10;46983.19;;;-142.92;100.00
56456;BME280;42354;53.218;6.564;2023-08-17T05:24:37;46999.59;;;-142.92;100.00
56456;BME280;42354;53.218;6.564;2023-08-17T05:27:03;46987.28;;;-142.92;100.00
56456;BME280;42354;53.218;6.564;2023-08-17T05:29:28;46985.22;;;-142.92;100.00
56456;BME280;42354;53.218;6.564;2023-08-17T05:31:53;46983.19;;;-142.92;100.00
56456;BME280;42354;53.218;6.564;2023-08-17T05:34:19;46991.38;;;-142.92;100.00
56456;BME280;42354;53.218;6.564;2023-08-17T05:36:44;46991.38;;;-142.92;100.00
56456;BME280;42354;53.218;6.564;2023-08-17T05:39:10;46979.06;;;-142.92;100.00
56456;BME280;42354;53.218;6.564;2023-08-17T05:41:35;46991.38;;;-142.92;100.00
56456;BME280;42354;53.218;6.564;2023-08-17T05:44:00;46991.38;;;-142.92;100.00
56456;BME280;42354;53.218;6.564;2023-08-17T05:46:26;46993.44;;;-142.92;100.00
56456;BME280;42354;53.218;6.564;2023-08-17T05:48:54;46983.19;;;-142.92;100.00
56456;BME280;42354;53.218;6.564;2023-08-17T05:51:19;46999.59;;;-142.92;100.00
56456;BME280;42354;53.218;6.564;2023-08-17T05:53:45;46977.03;;;-142.92;100.00
56456;BME280;42354;53.218;6.564;2023-08-17T05:56:10;47007.81;;;-142.92;100.00
56456;BME280;42354;53.218;6.564;2023-08-17T05:58:35;46985.22;;;-142.92;100.00
56456;BME280;42354;53.218;6.564;2023-08-17T06:01:08;46997.53;;;-142.92;100.00
56456;BME280;42354;53.218;6.564;2023-08-17T06:03:37;46985.22;;;-142.92;100.00
56456;BME280;42354;53.218;6.564;2023-08-17T06:06:06;46983.19;;;-142.92;100.00
56456;BME280;42354;53.218;6.564;2023-08-17T06:08:32;46991.38;;;-142.92;100.00
56456;BME280;42354;53.218;6.564;2023-08-17T06:10:57;46987.28;;;-142.92;100.00
56456;BME280;42354;53.218;6.564;2023-08-17T06:13:22;46987.28;;;-142.92;100.00
56456;BME280;42354;53.218;6.564;2023-08-17T06:15:48;46987.28;;;-142.92;100.00
56456;BME280;42354;53.218;6.564;2023-08-17T06:18:13;46989.34;;;-142.92;100.00
56456;BME280;42354;53.218;6.564;2023-08-17T06:20:39;46999.59;;;-142.92;100.00
56456;BME280;42354;53.218;6.564;2023-08-17T06:23:04;46981.13;;;-142.92;100.00
56456;BME280;42354;53.218;6.564;2023-08-17T06:25:29;46983.19;;;-142.92;100.00
56456;BME280;42354;53.218;6.564;2023-08-17T06:27:55;46991.38;;;-142.92;100.00
56456;BME280;42354;53.218;6.564;2023-08-17T06:30:21;46991.38;;;-142.92;100.00
56456;BME280;42354;53.218;6.564;2023-08-17T06:32:46;46972.91;;;-142.92;100.00
56456;BME280;42354;53.218;6.564;2023-08-17T06:35:12;46989.34;;;-142.92;100.00
56456;BME280;42354;53.218;6.564;2023-08-17T06:37:37;47007.81;;;-142.92;100.00
56456;BME280;42354;53.218;6.564;2023-08-17T06:40:06;46989.34;;;-142.92;99.84
56456;BME280;42354;53.218;6.564;2023-08-17T06:42:32;46987.28;;;-142.92;99.66
56456;BME280;42354;53.218;6.564;2023-08-17T06:44:57;46993.44;;;-142.92;98.99
56456;BME280;42354;53.218;6.564;2023-08-17T06:47:23;46989.34;;;-142.92;98.05
56456;BME280;42354;53.218;6.564;2023-08-17T06:49:48;46987.28;;;-142.92;96.56
56456;BME280;42354;53.218;6.564;2023-08-17T06:52:14;46974.97;;;-142.92;95.91
56456;BME280;42354;53.218;6.564;2023-08-17T06:54:39;46981.13;;;-142.92;95.46
56456;BME280;42354;53.218;6.564;2023-08-17T06:57:05;46991.38;;;-142.92;94.98
56456;BME280;42354;53.218;6.564;2023-08-17T06:59:30;46993.44;;;-142.92;94.30
56456;BME280;42354;53.218;6.564;2023-08-17T07:01:56;46987.28;;;-142.92;92.98
56456;BME280;42354;53.218;6.564;2023-08-17T07:04:22;46991.38;;;-142.92;92.19
56456;BME280;42354;53.218;6.564;2023-08-17T07:06:48;47003.69;;;-142.92;92.17
56456;BME280;42354;53.218;6.564;2023-08-17T07:09:14;46985.22;;;-142.92;91.10
56456;BME280;42354;53.218;6.564;2023-08-17T07:11:39;46983.19;;;-142.92;90.18
56456;BME280;42354;53.218;6.564;2023-08-17T07:14:05;46989.34;;;-142.92;88.86
56456;BME280;42354;53.218;6.564;2023-08-17T07:16:31;46989.34;;;-142.92;89.40
56456;BME280;42354;53.218;6.564;2023-08-17T07:18:57;47011.91;;;-142.92;89.40
56456;BME280;42354;53.218;6.564;2023-08-17T07:21:22;46977.03;;;-142.92;90.21
56456;BME280;42354;53.218;6.564;2023-08-17T07:23:48;46987.28;;;-142.92;90.71
56456;BME280;42354;53.218;6.564;2023-08-17T07:26:14;47009.84;;;-142.92;90.80
56456;BME280;42354;53.218;6.564;2023-08-17T07:28:39;46981.13;;;-142.92;90.48
56456;BME280;42354;53.218;6.564;2023-08-17T07:31:07;46974.97;;;-142.92;89.90
56456;BME280;42354;53.218;6.564;2023-08-17T07:33:32;46985.22;;;-142.92;90.19
56456;BME280;42354;53.218;6.564;2023-08-17T07:35:58;46983.19;;;-142.92;90.27
56456;BME280;42354;53.218;6.564;2023-08-17T07:38:23;46985.22;;;-142.92;90.16
56456;BME280;42354;53.218;6.564;2023-08-17T07:40:49;46977.03;;;-142.92;90.31
56456;BME280;42354;53.218;6.564;2023-08-17T07:43:14;46979.06;;;-142.92;89.77
56456;BME280;42354;53.218;6.564;2023-08-17T07:45:39;46991.38;;;-142.92;89.07
56456;BME280;42354;53.218;6.564;2023-08-17T07:48:05;46991.38;;;-142.92;88.27
56456;BME280;42354;53.218;6.564;2023-08-17T07:50:30;46979.06;;;-142.92;87.00
56456;BME280;42354;53.218;6.564;2023-08-17T07:52:57;46995.50;;;-142.92;85.60
56456;BME280;42354;53.218;6.564;2023-08-17T07:55:22;46995.50;;;-142.92;84.64
56456;BME280;42354;53.218;6.564;2023-08-17T07:57:51;46987.28;;;-142.92;83.19
56456;BME280;42354;53.218;6.564;2023-08-17T08:00:16;47005.75;;;-142.92;82.13
56456;BME280;42354;53.218;6.564;2023-08-17T08:02:42;46987.28;;;-142.92;81.03
56456;BME280;42354;53.218;6.564;2023-08-17T08:05:07;46991.38;;;-142.92;80.30
56456;BME280;42354;53.218;6.564;2023-08-17T08:07:33;46987.28;;;-142.92;79.34
56456;BME280;42354;53.218;6.564;2023-08-17T08:09:58;46977.03;;;-142.92;78.21
56456;BME280;42354;53.218;6.564;2023-08-17T08:12:24;46977.03;;;-142.92;77.39
56456;BME280;42354;53.218;6.564;2023-08-17T08:14:49;46987.28;;;-142.92;76.62
56456;BME280;42354;53.218;6.564;2023-08-17T08:17:16;46991.38;;;-142.92;76.98
56456;BME280;42354;53.218;6.564;2023-08-17T08:19:42;46989.34;;;-142.92;77.75
56456;BME280;42354;53.218;6.564;2023-08-17T08:22:07;46983.19;;;-142.92;78.28
56456;BME280;42354;53.218;6.564;2023-08-17T08:24:32;46983.19;;;-142.92;78.73
56456;BME280;42354;53.218;6.564;2023-08-17T08:27:00;46987.28;;;-142.92;78.84
56456;BME280;42354;53.218;6.564;2023-08-17T08:29:26;46979.06;;;-142.92;78.61
56456;BME280;42354;53.218;6.564;2023-08-17T08:31:52;46977.03;;;-142.92;77.91
56456;BME280;42354;53.218;6.564;2023-08-17T08:34:18;46987.28;;;-142.92;77.10
56456;BME280;42354;53.218;6.564;2023-08-17T08:36:44;46974.97;;;-142.92;76.79
56456;BME280;42354;53.218;6.564;2023-08-17T08:39:10;46983.19;;;-142.92;76.55
56456;BME280;42354;53.218;6.564;2023-08-17T08:41:38;46991.38;;;-142.92;75.85
56456;BME280;42354;53.218;6.564;2023-08-17T08:44:04;46968.81;;;-142.92;75.64
56456;BME280;42354;53.218;6.564;2023-08-17T08:46:30;46981.13;;;-142.92;75.72
56456;BME280;42354;53.218;6.564;2023-08-17T08:48:58;46993.44;;;-142.92;76.24
56456;BME280;42354;53.218;6.564;2023-08-17T08:51:27;46977.03;;;-142.92;75.70
56456;BME280;42354;53.218;6.564;2023-08-17T08:54:00;46989.34;;;-142.92;74.85
56456;BME280;42354;53.218;6.564;2023-08-17T08:56:35;46991.38;;;-142.92;73.61
56456;BME280;42354;53.218;6.564;2023-08-17T08:59:04;46985.22;;;-142.92;73.78
56456;BME280;42354;53.218;6.564;2023-08-17T09:01:33;46981.13;;;-142.92;73.11
56456;BME280;42354;53.218;6.564;2023-08-17T09:03:59;46987.28;;;-142.92;73.00
56456;BME280;42354;53.218;6.564;2023-08-17T09:06:26;46974.97;;;-142.92;72.53
56456;BME280;42354;53.218;6.564;2023-08-17T09:08:55;46991.38;;;-142.92;71.74
56456;BME280;42354;53.218;6.564;2023-08-17T09:11:21;46987.28;;;-142.92;71.23
56456;BME280;42354;53.218;6.564;2023-08-17T09:13:47;46991.38;;;-142.92;69.90
56456;BME280;42354;53.218;6.564;2023-08-17T09:16:12;46987.28;;;-142.92;68.80
56456;BME280;42354;53.218;6.564;2023-08-17T09:18:38;46987.28;;;-142.92;68.19
56456;BME280;42354;53.218;6.564;2023-08-17T09:21:03;46985.22;;;-142.92;68.01
56456;BME280;42354;53.218;6.564;2023-08-17T09:23:28;46989.34;;;-142.92;67.81
56456;BME280;42354;53.218;6.564;2023-08-17T09:25:54;46987.28;;;-142.92;67.09
56456;BME280;42354;53.218;6.564;2023-08-17T09:28:27;46979.06;;;-142.92;65.97
56456;BME280;42354;53.218;6.564;2023-08-17T09:30:57;46997.53;;;-142.92;64.80
56456;BME280;42354;53.218;6.564;2023-08-17T09:33:24;46983.19;;;-142.92;63.37
56456;BME280;42354;53.218;6.564;2023-08-17T09:35:51;46974.97;;;-142.92;62.25
56456;BME280;42354;53.218;6.564;2023-08-17T09:38:18;46991.38;;;-142.92;61.07
56456;BME280;42354;53.218;6.564;2023-08-17T09:40:43;46966.75;;;-142.92;60.74
56456;BME280;42354;53.218;6.564;2023-08-17T09:43:09;46977.03;;;-142.92;60.32
56456;BME280;42354;53.218;6.564;2023-08-17T09:45:37;46987.28;;;-142.92;61.12
56456;BME280;42354;53.218;6.564;2023-08-17T09:48:03;46972.91;;;-142.92;60.97
56456;BME280;42354;53.218;6.564;2023-08-17T09:50:29;46991.38;;;-142.92;61.02
56456;BME280;42354;53.218;6.564;2023-08-17T09:52:54;46974.97;;;-142.92;60.53
56456;BME280;42354;53.218;6.564;2023-08-17T09:55:21;46983.19;;;-142.92;59.14
56456;BME280;42354;53.218;6.564;2023-08-17T09:57:49;46983.19;;;-142.92;58.40
56456;BME280;42354;53.218;6.564;2023-08-17T10:00:16;46977.03;;;-142.92;56.64
56456;BME280;42354;53.218;6.564;2023-08-17T10:02:43;46983.19;;;-142.92;55.84
56456;BME280;42354;53.218;6.564;2023-08-17T10:05:11;46987.28;;;-142.92;55.50
56456;BME280;42354;53.218;6.564;2023-08-17T10:07:38;46989.34;;;-142.92;54.58
56456;BME280;42354;53.218;6.564;2023-08-17T10:10:06;46979.06;;;-142.92;53.42
56456;BME280;42354;53.218;6.564;2023-08-17T10:12:45;46977.03;;;-142.92;52.27
56456;BME280;42354;53.218;6.564;2023-08-17T10:15:15;46985.22;;;-142.92;53.56
56456;BME280;42354;53.218;6.564;2023-08-17T10:17:52;46995.50;;;-142.92;54.45
56456;BME280;42354;53.218;6.564;2023-08-17T10:20:21;46983.19;;;-142.92;57.01
56456;BME280;42354;53.218;6.564;2023-08-17T10:22:56;46983.19;;;-142.92;56.84
56456;BME280;42354;53.218;6.564;2023-08-17T10:25:26;46989.34;;;-142.92;58.21
56456;BME280;42354;53.218;6.564;2023-08-17T10:27:53;46983.19;;;-142.92;60.13
56456;BME280;42354;53.218;6.564;2023-08-17T10:30:19;46991.38;;;-142.92;62.62
56456;BME280;42354;53.218;6.564;2023-08-17T10:32:45;46987.28;;;-142.92;64.30
56456;BME280;42354;53.218;6.564;2023-08-17T10:35:13;46979.06;;;-142.92;65.11
56456;BME280;42354;53.218;6.564;2023-08-17T10:37:39;46989.34;;;-142.92;65.39
56456;BME280;42354;53.218;6.564;2023-08-17T10:40:05;46974.97;;;-142.92;65.41
56456;BME280;42354;53.218;6.564;2023-08-17T10:42:35;46993.44;;;-142.92;63.90
56456;BME280;42354;53.218;6.564;2023-08-17T10:45:26;46987.28;;;-142.92;62.83
56456;BME280;42354;53.218;6.564;2023-08-17T10:48:24;46983.19;;;-142.92;61.32
56456;BME280;42354;53.218;6.564;2023-08-17T10:50:59;46991.38;;;-142.92;60.87
56456;BME280;42354;53.218;6.564;2023-08-17T10:53:25;46981.13;;;-142.92;61.69
56456;BME280;42354;53.218;6.564;2023-08-17T10:55:57;46979.06;;;-142.92;62.46
56456;BME280;42354;53.218;6.564;2023-08-17T10:58:23;46987.28;;;-142.92;62.67
56456;BME280;42354;53.218;6.564;2023-08-17T11:00:54;46977.03;;;-142.92;62.08
56456;BME280;42354;53.218;6.564;2023-08-17T11:03:20;46979.06;;;-142.92;61.49
56456;BME280;42354;53.218;6.564;2023-08-17T11:05:50;46987.28;;;-142.92;58.98
56456;BME280;42354;53.218;6.564;2023-08-17T11:08:37;46974.97;;;-142.92;57.34
56456;BME280;42354;53.218;6.564;2023-08-17T11:11:10;46979.06;;;-142.92;57.54
56456;BME280;42354;53.218;6.564;2023-08-17T11:13:37;46983.19;;;-142.92;56.77
56456;BME280;42354;53.218;6.564;2023-08-17T11:16:04;46983.19;;;-142.92;55.99
56456;BME280;42354;53.218;6.564;2023-08-17T11:18:31;46974.97;;;-142.92;56.92
56456;BME280;42354;53.218;6.564;2023-08-17T11:20:58;46981.13;;;-142.92;57.14
56456;BME280;42354;53.218;6.564;2023-08-17T11:23:23;46983.19;;;-142.92;57.29
56456;BME280;42354;53.218;6.564;2023-08-17T11:25:52;46987.28;;;-142.92;57.77
56456;BME280;42354;53.218;6.564;2023-08-17T11:28:17;46968.81;;;-142.92;58.10
56456;BME280;42354;53.218;6.564;2023-08-17T11:30:43;46983.19;;;-142.92;56.94
56456;BME280;42354;53.218;6.564;2023-08-17T11:33:10;46983.19;;;-142.92;56.26
56456;BME280;42354;53.218;6.564;2023-08-17T11:35:36;46999.59;;;-142.92;56.19
56456;BME280;42354;53.218;6.564;2023-08-17T11:38:02;46974.97;;;-142.92;55.59
56456;BME280;42354;53.218;6.564;2023-08-17T11:40:28;46977.03;;;-142.92;55.46
56456;BME280;42354;53.218;6.564;2023-08-17T11:42:55;46970.88;;;-142.92;55.75
56456;BME280;42354;53.218;6.564;2023-08-17T11:45:21;46983.19;;;-142.92;55.69
56456;BME280;42354;53.218;6.564;2023-08-17T11:47:47;46970.88;;;-142.92;54.84
56456;BME280;42354;53.218;6.564;2023-08-17T11:50:13;46989.34;;;-142.92;55.92
56456;BME280;42354;53.218;6.564;2023-08-17T11:52:39;46977.03;;;-142.92;57.42
56456;BME280;42354;53.218;6.564;2023-08-17T11:55:05;46983.19;;;-142.92;57.30
56456;BME280;42354;53.218;6.564;2023-08-17T11:57:32;46987.28;;;-142.92;57.62
56456;BME280;42354;53.218;6.564;2023-08-17T11:59:59;46987.28;;;-142.92;58.90
56456;BME280;42354;53.218;6.564;2023-08-17T12:02:26;46966.75;;;-142.92;60.38
56456;BME280;42354;53.218;6.564;2023-08-17T12:04:52;46977.03;;;-142.92;61.07
56456;BME280;42354;53.218;6.564;2023-08-17T12:07:18;46981.13;;;-142.92;60.42
56456;BME280;42354;53.218;6.564;2023-08-17T12:09:45;46960.59;;;-142.92;60.77
56456;BME280;42354;53.218;6.564;2023-08-17T12:12:11;46979.06;;;-142.92;60.96
56456;BME280;42354;53.218;6.564;2023-08-17T12:14:36;46987.28;;;-142.92;60.44
56456;BME280;42354;53.218;6.564;2023-08-17T12:17:02;46985.22;;;-142.92;61.38
56456;BME280;42354;53.218;6.564;2023-08-17T12:19:29;46983.19;;;-142.92;62.77
56456;BME280;42354;53.218;6.564;2023-08-17T12:21:54;46983.19;;;-142.92;63.70
56456;BME280;42354;53.218;6.564;2023-08-17T12:24:23;46979.06;;;-142.92;63.44
56456;BME280;42354;53.218;6.564;2023-08-17T12:26:49;46987.28;;;-142.92;63.63
56456;BME280;42354;53.218;6.564;2023-08-17T12:29:14;46985.22;;;-142.92;64.09
56456;BME280;42354;53.218;6.564;2023-08-17T12:31:40;46987.28;;;-142.92;64.02
56456;BME280;42354;53.218;6.564;2023-08-17T12:34:05;46974.97;;;-142.92;64.16
56456;BME280;42354;53.218;6.564;2023-08-17T12:36:32;46972.91;;;-142.92;64.11
56456;BME280;42354;53.218;6.564;2023-08-17T12:38:57;46974.97;;;-142.92;64.34